# Tabular Observed and Forecast Hydrograph Information
#
# Location: Sacramento River - Ord Ferry (ORFC1)
#
# File Generation Time: 09/06/2026 at 06:49 AM PDT
# Data Interval: 1 Hour
#
# Most Recent Date & Time of Maximum Observed: 09/05/2026 at 01:00 PM PDT
# Maximum Observed Stage: 96.69 Feet
# Maximum Observed Flow: 7085 cfs
#
# Earliest Date & Time of Maximum Forecast: 09/06/2026 at 07:00 AM PDT
# Maximum Forecast Stage: 96.57 Feet
# Maximum Forecast Flow: 6801 cfs
#
# OBSERVED
#
# Date & Time (Local) Stage (Feet) Flow (cfs) Trend Observed Status
# ---------------------------------------------------------------------------------
09/01/2026 06 AM PDT 96.45 6528 Normal
09/01/2026 07 AM PDT 96.43 6483 - Normal
09/01/2026 08 AM PDT 96.43 6483 0 Normal
09/01/2026 09 AM PDT 96.42 6461 - Normal
09/01/2026 10 AM PDT 96.43 6483 + Normal
09/01/2026 11 AM PDT 96.43 6483 0 Normal
09/01/2026 12 PM PDT 96.44 6505 + Normal
09/01/2026 01 PM PDT 96.44 6505 0 Normal
09/01/2026 02 PM PDT 96.44 6505 0 Normal
09/01/2026 03 PM PDT 96.43 6483 - Normal
09/01/2026 04 PM PDT 96.43 6483 0 Normal
09/01/2026 05 PM PDT 96.42 6461 - Normal
09/01/2026 06 PM PDT 96.41 6439 - Normal
09/01/2026 07 PM PDT 96.41 6439 0 Normal
09/01/2026 08 PM PDT 96.41 6439 0 Normal
09/01/2026 09 PM PDT 96.41 6439 0 Normal
09/01/2026 10 PM PDT 96.42 6461 + Normal
09/01/2026 11 PM PDT 96.42 6461 0 Normal
09/02/2026 12 AM PDT 96.43 6483 + Normal
09/02/2026 01 AM PDT 96.44 6505 + Normal
09/02/2026 02 AM PDT 96.44 6505 0 Normal
09/02/2026 03 AM PDT 96.45 6528 + Normal
09/02/2026 04 AM PDT 96.45 6528 0 Normal
09/02/2026 05 AM PDT 96.45 6528 0 Normal
09/02/2026 06 AM PDT 96.45 6528 0 Normal
09/02/2026 07 AM PDT 96.45 6528 0 Normal
09/02/2026 08 AM PDT 96.45 6528 0 Normal
09/02/2026 09 AM PDT 96.46 6550 + Normal
09/02/2026 10 AM PDT 96.46 6550 0 Normal
09/02/2026 11 AM PDT 96.46 6550 0 Normal
09/02/2026 12 PM PDT 96.46 6550 0 Normal
09/02/2026 01 PM PDT 96.47 6572 + Normal
09/02/2026 02 PM PDT 96.47 6572 0 Normal
09/02/2026 03 PM PDT 96.47 6572 0 Normal
09/02/2026 04 PM PDT 96.47 6572 0 Normal
09/02/2026 05 PM PDT 96.47 6572 0 Normal
09/02/2026 06 PM PDT 96.47 6572 0 Normal
09/02/2026 07 PM PDT 96.47 6572 0 Normal
09/02/2026 08 PM PDT 96.47 6572 0 Normal
09/02/2026 09 PM PDT 96.47 6572 0 Normal
09/02/2026 10 PM PDT 96.47 6572 0 Normal
09/02/2026 11 PM PDT 96.48 6595 + Normal
09/03/2026 12 AM PDT 96.48 6595 0 Normal
09/03/2026 01 AM PDT 96.48 6595 0 Normal
09/03/2026 02 AM PDT 96.48 6595 0 Normal
09/03/2026 03 AM PDT 96.48 6595 0 Normal
09/03/2026 04 AM PDT 96.48 6595 0 Normal
09/03/2026 05 AM PDT 96.49 6618 + Normal
09/03/2026 06 AM PDT 96.49 6618 0 Normal
09/03/2026 07 AM PDT 96.49 6618 0 Normal
09/03/2026 08 AM PDT 96.49 6618 0 Normal
09/03/2026 09 AM PDT 96.49 6618 0 Normal
09/03/2026 10 AM PDT 96.49 6618 0 Normal
09/03/2026 11 AM PDT 96.49 6618 0 Normal
09/03/2026 12 PM PDT 96.49 6618 0 Normal
09/03/2026 01 PM PDT 96.50 6640 + Normal
09/03/2026 02 PM PDT 96.50 6640 0 Normal
09/03/2026 03 PM PDT 96.51 6663 + Normal
09/03/2026 04 PM PDT 96.51 6663 0 Normal
09/03/2026 05 PM PDT 96.51 6663 0 Normal
09/03/2026 06 PM PDT 96.51 6663 0 Normal
09/03/2026 07 PM PDT 96.52 6686 + Normal
09/03/2026 08 PM PDT 96.52 6686 0 Normal
09/03/2026 09 PM PDT 96.52 6686 0 Normal
09/03/2026 10 PM PDT 96.52 6686 0 Normal
09/03/2026 11 PM PDT 96.52 6686 0 Normal
09/04/2026 12 AM PDT 96.52 6686 0 Normal
09/04/2026 01 AM PDT 96.52 6686 0 Normal
09/04/2026 02 AM PDT 96.53 6709 + Normal
09/04/2026 03 AM PDT 96.53 6709 0 Normal
09/04/2026 04 AM PDT 96.53 6709 0 Normal
09/04/2026 05 AM PDT 96.54 6732 + Normal
09/04/2026 06 AM PDT 96.54 6732 0 Normal
09/04/2026 07 AM PDT 96.54 6732 0 Normal
09/04/2026 08 AM PDT 96.55 6755 + Normal
09/04/2026 09 AM PDT 96.56 6778 + Normal
09/04/2026 10 AM PDT 96.56 6778 0 Normal
09/04/2026 11 AM PDT 96.58 6824 + Normal
09/04/2026 12 PM PDT 96.58 6824 0 Normal
09/04/2026 01 PM PDT 96.59 6848 + Normal
09/04/2026 02 PM PDT 96.59 6848 0 Normal
09/04/2026 03 PM PDT 96.59 6848 0 Normal
09/04/2026 04 PM PDT 96.58 6824 - Normal
09/04/2026 05 PM PDT 96.58 6824 0 Normal
09/04/2026 06 PM PDT 96.57 6801 - Normal
09/04/2026 07 PM PDT 96.56 6778 - Normal
09/04/2026 08 PM PDT 96.56 6778 0 Normal
09/04/2026 09 PM PDT 96.56 6778 0 Normal
09/04/2026 10 PM PDT 96.56 6778 0 Normal
09/04/2026 11 PM PDT 96.57 6801 + Normal
09/05/2026 12 AM PDT 96.58 6824 + Normal
09/05/2026 01 AM PDT 96.60 6871 + Normal
09/05/2026 02 AM PDT 96.62 6918 + Normal
09/05/2026 03 AM PDT 96.64 6965 + Normal
09/05/2026 04 AM PDT 96.65 6989 + Normal
09/05/2026 05 AM PDT 96.66 7013 + Normal
09/05/2026 06 AM PDT 96.67 7037 + Normal
09/05/2026 07 AM PDT 96.68 7061 + Normal
09/05/2026 08 AM PDT 96.68 7061 0 Normal
09/05/2026 09 AM PDT 96.69 7085 + Normal
09/05/2026 10 AM PDT 96.69 7085 0 Normal
09/05/2026 11 AM PDT 96.69 7085 0 Normal
09/05/2026 12 PM PDT 96.69 7085 0 Normal
09/05/2026 01 PM PDT 96.69 7085 0 Normal
09/05/2026 02 PM PDT 96.68 7061 - Normal
09/05/2026 03 PM PDT 96.68 7061 0 Normal
09/05/2026 04 PM PDT 96.67 7037 - Normal
09/05/2026 05 PM PDT 96.66 7013 - Normal
09/05/2026 06 PM PDT 96.66 7013 0 Normal
09/05/2026 07 PM PDT 96.65 6989 - Normal
09/05/2026 08 PM PDT 96.64 6965 - Normal
09/05/2026 09 PM PDT 96.64 6965 0 Normal
09/05/2026 10 PM PDT 96.64 6965 0 Normal
09/05/2026 11 PM PDT 96.63 6942 - Normal
09/06/2026 12 AM PDT 96.63 6942 0 Normal
09/06/2026 01 AM PDT 96.63 6942 0 Normal
09/06/2026 02 AM PDT 96.62 6918 - Normal
09/06/2026 03 AM PDT 96.61 6894 - Normal
09/06/2026 04 AM PDT 96.60 6871 - Normal
09/06/2026 05 AM PDT 96.59 6848 - Normal
09/06/2026 06 AM PDT 96.58 6824 - Normal
#
# FORECAST
#
# Date & Time (Local) Stage (Feet) Flow (cfs) Trend Forecast Status
# ---------------------------------------------------------------------------------
09/06/2026 07 AM PDT 96.57 6801 Normal
09/06/2026 08 AM PDT 96.57 6801 0 Normal
09/06/2026 09 AM PDT 96.56 6778 - Normal
09/06/2026 10 AM PDT 96.56 6778 0 Normal
09/06/2026 11 AM PDT 96.56 6778 0 Normal
09/06/2026 12 PM PDT 96.56 6778 0 Normal
09/06/2026 01 PM PDT 96.55 6755 - Normal
09/06/2026 02 PM PDT 96.55 6755 0 Normal
09/06/2026 03 PM PDT 96.54 6732 - Normal
09/06/2026 04 PM PDT 96.54 6732 0 Normal
09/06/2026 05 PM PDT 96.54 6732 0 Normal
09/06/2026 06 PM PDT 96.53 6709 - Normal
09/06/2026 07 PM PDT 96.53 6709 0 Normal
09/06/2026 08 PM PDT 96.53 6709 0 Normal
09/06/2026 09 PM PDT 96.53 6709 0 Normal
09/06/2026 10 PM PDT 96.53 6709 0 Normal
09/06/2026 11 PM PDT 96.52 6686 - Normal
09/07/2026 12 AM PDT 96.52 6686 0 Normal
09/07/2026 01 AM PDT 96.52 6686 0 Normal
09/07/2026 02 AM PDT 96.52 6686 0 Normal
09/07/2026 03 AM PDT 96.52 6686 0 Normal
09/07/2026 04 AM PDT 96.51 6663 - Normal
09/07/2026 05 AM PDT 96.51 6663 0 Normal
09/07/2026 06 AM PDT 96.51 6663 0 Normal
09/07/2026 07 AM PDT 96.51 6663 0 Normal
09/07/2026 08 AM PDT 96.51 6663 0 Normal
09/07/2026 09 AM PDT 96.51 6663 0 Normal
09/07/2026 10 AM PDT 96.51 6663 0 Normal
09/07/2026 11 AM PDT 96.51 6663 0 Normal
09/07/2026 12 PM PDT 96.51 6663 0 Normal
09/07/2026 01 PM PDT 96.51 6663 0 Normal
09/07/2026 02 PM PDT 96.51 6663 0 Normal
09/07/2026 03 PM PDT 96.50 6640 - Normal
09/07/2026 04 PM PDT 96.50 6640 0 Normal
09/07/2026 05 PM PDT 96.50 6640 0 Normal
09/07/2026 06 PM PDT 96.50 6640 0 Normal
09/07/2026 07 PM PDT 96.50 6640 0 Normal
09/07/2026 08 PM PDT 96.51 6663 + Normal
09/07/2026 09 PM PDT 96.51 6663 0 Normal
09/07/2026 10 PM PDT 96.51 6663 0 Normal
09/07/2026 11 PM PDT 96.50 6640 - Normal
09/08/2026 12 AM PDT 96.49 6618 - Normal
09/08/2026 01 AM PDT 96.48 6595 - Normal
09/08/2026 02 AM PDT 96.47 6572 - Normal
09/08/2026 03 AM PDT 96.45 6528 - Normal
09/08/2026 04 AM PDT 96.43 6483 - Normal
09/08/2026 05 AM PDT 96.41 6439 - Normal
09/08/2026 06 AM PDT 96.39 6395 - Normal
09/08/2026 07 AM PDT 96.37 6351 - Normal
09/08/2026 08 AM PDT 96.35 6308 - Normal
09/08/2026 09 AM PDT 96.34 6287 - Normal
09/08/2026 10 AM PDT 96.32 6244 - Normal
09/08/2026 11 AM PDT 96.31 6222 - Normal
09/08/2026 12 PM PDT 96.31 6222 0 Normal
09/08/2026 01 PM PDT 96.30 6201 - Normal
09/08/2026 02 PM PDT 96.30 6201 0 Normal
09/08/2026 03 PM PDT 96.29 6178 - Normal
09/08/2026 04 PM PDT 96.29 6178 0 Normal
09/08/2026 05 PM PDT 96.29 6178 0 Normal
09/08/2026 06 PM PDT 96.28 6155 - Normal
09/08/2026 07 PM PDT 96.28 6155 0 Normal
09/08/2026 08 PM PDT 96.29 6178 + Normal
09/08/2026 09 PM PDT 96.29 6178 0 Normal
09/08/2026 10 PM PDT 96.29 6178 0 Normal
09/08/2026 11 PM PDT 96.29 6178 0 Normal
09/09/2026 12 AM PDT 96.29 6178 0 Normal
09/09/2026 01 AM PDT 96.29 6178 0 Normal
09/09/2026 02 AM PDT 96.29 6178 0 Normal
09/09/2026 03 AM PDT 96.29 6178 0 Normal
09/09/2026 04 AM PDT 96.29 6178 0 Normal
09/09/2026 05 AM PDT 96.29 6178 0 Normal
09/09/2026 06 AM PDT 96.29 6178 0 Normal
09/09/2026 07 AM PDT 96.29 6178 0 Normal
09/09/2026 08 AM PDT 96.29 6178 0 Normal
09/09/2026 09 AM PDT 96.29 6178 0 Normal
09/09/2026 10 AM PDT 96.29 6178 0 Normal
09/09/2026 11 AM PDT 96.29 6178 0 Normal
09/09/2026 12 PM PDT 96.29 6178 0 Normal
09/09/2026 01 PM PDT 96.29 6178 0 Normal
09/09/2026 02 PM PDT 96.29 6178 0 Normal
09/09/2026 03 PM PDT 96.29 6178 0 Normal
09/09/2026 04 PM PDT 96.29 6178 0 Normal
09/09/2026 05 PM PDT 96.29 6178 0 Normal
09/09/2026 06 PM PDT 96.29 6178 0 Normal
09/09/2026 07 PM PDT 96.29 6178 0 Normal
09/09/2026 08 PM PDT 96.30 6201 + Normal
09/09/2026 09 PM PDT 96.30 6201 0 Normal
09/09/2026 10 PM PDT 96.30 6201 0 Normal
09/09/2026 11 PM PDT 96.30 6201 0 Normal
09/10/2026 12 AM PDT 96.30 6201 0 Normal
09/10/2026 01 AM PDT 96.30 6201 0 Normal
09/10/2026 02 AM PDT 96.30 6201 0 Normal
09/10/2026 03 AM PDT 96.30 6201 0 Normal
09/10/2026 04 AM PDT 96.30 6201 0 Normal
09/10/2026 05 AM PDT 96.30 6201 0 Normal
09/10/2026 06 AM PDT 96.30 6201 0 Normal
09/10/2026 07 AM PDT 96.30 6201 0 Normal
09/10/2026 08 AM PDT 96.30 6201 0 Normal
09/10/2026 09 AM PDT 96.30 6201 0 Normal
09/10/2026 10 AM PDT 96.30 6201 0 Normal
09/10/2026 11 AM PDT 96.30 6201 0 Normal
09/10/2026 12 PM PDT 96.30 6201 0 Normal
09/10/2026 01 PM PDT 96.30 6201 0 Normal
09/10/2026 02 PM PDT 96.30 6201 0 Normal
09/10/2026 03 PM PDT 96.30 6201 0 Normal
09/10/2026 04 PM PDT 96.29 6178 - Normal
09/10/2026 05 PM PDT 96.29 6178 0 Normal
09/10/2026 06 PM PDT 96.29 6178 0 Normal
09/10/2026 07 PM PDT 96.29 6178 0 Normal
09/10/2026 08 PM PDT 96.30 6201 + Normal
09/10/2026 09 PM PDT 96.30 6201 0 Normal
09/10/2026 10 PM PDT 96.30 6201 0 Normal
09/10/2026 11 PM PDT 96.30 6201 0 Normal
09/11/2026 12 AM PDT 96.30 6201 0 Normal
09/11/2026 01 AM PDT 96.30 6201 0 Normal
09/11/2026 02 AM PDT 96.30 6201 0 Normal
09/11/2026 03 AM PDT 96.30 6201 0 Normal
09/11/2026 04 AM PDT 96.30 6201 0 Normal
09/11/2026 05 AM PDT 96.30 6201 0 Normal
#
# NOTE 1: Stages are rounded to the nearest hundredth (.01) of a foot.
# NOTE 2: Flows are rounded to the nearest (1) cfs.
# NOTE 3: Trends are determined using hourly change in unrounded stage and flow.
# NOTE 4: Maximum Values are determined using unrounded stage and flow.
|